sensor_id;sensor_type;location;lat;lon;timestamp;P1;durP1;ratioP1;P2;durP2;ratioP2
4547;SDS011;2286;51.570;7.090;2023-09-19T00:01:38;5.50;;;2.83;;
4547;SDS011;2286;51.570;7.090;2023-09-19T00:04:07;11.63;;;2.80;;
4547;SDS011;2286;51.570;7.090;2023-09-19T00:06:35;7.50;;;3.60;;
4547;SDS011;2286;51.570;7.090;2023-09-19T00:09:02;6.07;;;3.37;;
4547;SDS011;2286;51.570;7.090;2023-09-19T00:11:29;9.40;;;2.97;;
4547;SDS011;2286;51.570;7.090;2023-09-19T00:13:57;5.40;;;3.13;;
4547;SDS011;2286;51.570;7.090;2023-09-19T00:16:25;8.20;;;3.60;;
4547;SDS011;2286;51.570;7.090;2023-09-19T00:18:52;10.10;;;3.30;;
4547;SDS011;2286;51.570;7.090;2023-09-19T00:21:21;7.53;;;3.17;;
4547;SDS011;2286;51.570;7.090;2023-09-19T00:23:49;6.93;;;3.87;;
4547;SDS011;2286;51.570;7.090;2023-09-19T00:26:16;13.83;;;2.83;;
4547;SDS011;2286;51.570;7.090;2023-09-19T00:28:46;15.30;;;3.47;;
4547;SDS011;2286;51.570;7.090;2023-09-19T00:31:13;7.00;;;2.57;;
4547;SDS011;2286;51.570;7.090;2023-09-19T00:33:40;8.90;;;2.80;;
4547;SDS011;2286;51.570;7.090;2023-09-19T00:36:07;6.87;;;3.50;;
4547;SDS011;2286;51.570;7.090;2023-09-19T00:38:36;9.47;;;3.63;;
4547;SDS011;2286;51.570;7.090;2023-09-19T00:41:03;10.53;;;3.17;;
4547;SDS011;2286;51.570;7.090;2023-09-19T00:43:30;10.67;;;3.50;;
4547;SDS011;2286;51.570;7.090;2023-09-19T00:45:59;7.40;;;2.73;;
4547;SDS011;2286;51.570;7.090;2023-09-19T00:48:28;9.10;;;3.17;;
4547;SDS011;2286;51.570;7.090;2023-09-19T00:50:57;6.97;;;2.88;;
4547;SDS011;2286;51.570;7.090;2023-09-19T00:53:29;7.00;;;3.40;;
4547;SDS011;2286;51.570;7.090;2023-09-19T00:56:00;5.40;;;2.67;;
4547;SDS011;2286;51.570;7.090;2023-09-19T00:58:30;11.33;;;3.13;;
4547;SDS011;2286;51.570;7.090;2023-09-19T01:00:59;10.40;;;2.63;;
4547;SDS011;2286;51.570;7.090;2023-09-19T01:03:26;8.00;;;3.20;;
4547;SDS011;2286;51.570;7.090;2023-09-19T01:05:53;10.67;;;3.37;;
4547;SDS011;2286;51.570;7.090;2023-09-19T01:08:21;9.57;;;3.13;;
4547;SDS011;2286;51.570;7.090;2023-09-19T01:10:51;10.45;;;3.63;;
4547;SDS011;2286;51.570;7.090;2023-09-19T01:13:24;7.37;;;2.93;;
4547;SDS011;2286;51.570;7.090;2023-09-19T01:15:59;9.17;;;3.23;;
4547;SDS011;2286;51.570;7.090;2023-09-19T01:18:35;10.20;;;2.83;;
4547;SDS011;2286;51.570;7.090;2023-09-19T01:21:15;9.40;;;2.90;;
4547;SDS011;2286;51.570;7.090;2023-09-19T01:26:53;9.30;;;3.30;;
4547;SDS011;2286;51.570;7.090;2023-09-19T01:29:36;9.00;;;3.80;;
4547;SDS011;2286;51.570;7.090;2023-09-19T01:32:08;8.03;;;3.17;;
4547;SDS011;2286;51.570;7.090;2023-09-19T01:34:45;7.03;;;3.60;;
4547;SDS011;2286;51.570;7.090;2023-09-19T01:37:15;7.17;;;3.27;;
4547;SDS011;2286;51.570;7.090;2023-09-19T01:39:45;11.85;;;3.97;;
4547;SDS011;2286;51.570;7.090;2023-09-19T01:42:18;10.30;;;3.83;;
4547;SDS011;2286;51.570;7.090;2023-09-19T01:44:57;8.10;;;3.80;;
4547;SDS011;2286;51.570;7.090;2023-09-19T01:47:33;10.97;;;3.70;;
4547;SDS011;2286;51.570;7.090;2023-09-19T01:50:04;8.33;;;3.47;;
4547;SDS011;2286;51.570;7.090;2023-09-19T01:52:42;6.77;;;3.23;;
4547;SDS011;2286;51.570;7.090;2023-09-19T01:55:15;8.03;;;3.93;;
4547;SDS011;2286;51.570;7.090;2023-09-19T01:57:47;10.77;;;4.10;;
4547;SDS011;2286;51.570;7.090;2023-09-19T02:00:20;9.33;;;4.20;;
4547;SDS011;2286;51.570;7.090;2023-09-19T02:02:50;10.63;;;3.37;;
4547;SDS011;2286;51.570;7.090;2023-09-19T02:05:24;10.37;;;3.43;;
4547;SDS011;2286;51.570;7.090;2023-09-19T02:07:52;10.55;;;4.10;;
4547;SDS011;2286;51.570;7.090;2023-09-19T02:10:20;8.27;;;3.17;;
4547;SDS011;2286;51.570;7.090;2023-09-19T02:12:47;12.43;;;3.83;;
4547;SDS011;2286;51.570;7.090;2023-09-19T02:15:16;10.13;;;2.90;;
4547;SDS011;2286;51.570;7.090;2023-09-19T02:17:43;8.80;;;4.00;;
4547;SDS011;2286;51.570;7.090;2023-09-19T02:20:12;12.43;;;3.40;;
4547;SDS011;2286;51.570;7.090;2023-09-19T02:22:40;13.73;;;4.03;;
4547;SDS011;2286;51.570;7.090;2023-09-19T02:25:09;6.60;;;2.70;;
4547;SDS011;2286;51.570;7.090;2023-09-19T02:27:36;7.20;;;2.90;;
4547;SDS011;2286;51.570;7.090;2023-09-19T02:30:05;9.43;;;2.70;;
4547;SDS011;2286;51.570;7.090;2023-09-19T02:32:33;5.37;;;2.90;;
4547;SDS011;2286;51.570;7.090;2023-09-19T02:35:04;6.20;;;3.23;;
4547;SDS011;2286;51.570;7.090;2023-09-19T02:37:34;10.80;;;2.87;;
4547;SDS011;2286;51.570;7.090;2023-09-19T02:40:01;7.80;;;3.43;;
4547;SDS011;2286;51.570;7.090;2023-09-19T02:42:43;10.47;;;2.80;;
4547;SDS011;2286;51.570;7.090;2023-09-19T02:45:14;8.47;;;3.00;;
4547;SDS011;2286;51.570;7.090;2023-09-19T02:47:42;9.57;;;3.10;;
4547;SDS011;2286;51.570;7.090;2023-09-19T02:50:10;9.53;;;3.33;;
4547;SDS011;2286;51.570;7.090;2023-09-19T02:52:40;10.17;;;3.83;;
4547;SDS011;2286;51.570;7.090;2023-09-19T02:55:09;10.07;;;3.40;;
4547;SDS011;2286;51.570;7.090;2023-09-19T02:57:38;9.03;;;3.20;;
4547;SDS011;2286;51.570;7.090;2023-09-19T03:00:06;7.10;;;2.93;;
4547;SDS011;2286;51.570;7.090;2023-09-19T03:02:35;11.33;;;4.33;;
4547;SDS011;2286;51.570;7.090;2023-09-19T03:05:03;9.60;;;3.23;;
4547;SDS011;2286;51.570;7.090;2023-09-19T03:07:32;9.30;;;3.03;;
4547;SDS011;2286;51.570;7.090;2023-09-19T03:10:01;12.52;;;3.70;;
4547;SDS011;2286;51.570;7.090;2023-09-19T03:12:29;9.73;;;3.80;;
4547;SDS011;2286;51.570;7.090;2023-09-19T03:14:56;7.80;;;3.17;;
4547;SDS011;2286;51.570;7.090;2023-09-19T03:17:24;8.73;;;3.70;;
4547;SDS011;2286;51.570;7.090;2023-09-19T03:19:52;8.90;;;3.10;;
4547;SDS011;2286;51.570;7.090;2023-09-19T03:22:19;13.73;;;4.07;;
4547;SDS011;2286;51.570;7.090;2023-09-19T03:24:56;9.70;;;3.03;;
4547;SDS011;2286;51.570;7.090;2023-09-19T03:27:27;10.13;;;3.03;;
4547;SDS011;2286;51.570;7.090;2023-09-19T03:29:54;10.37;;;3.33;;
4547;SDS011;2286;51.570;7.090;2023-09-19T03:32:21;11.60;;;3.50;;
4547;SDS011;2286;51.570;7.090;2023-09-19T03:34:48;8.77;;;3.20;;
4547;SDS011;2286;51.570;7.090;2023-09-19T03:37:15;10.83;;;3.57;;
4547;SDS011;2286;51.570;7.090;2023-09-19T03:39:43;13.80;;;3.67;;
4547;SDS011;2286;51.570;7.090;2023-09-19T03:42:10;14.90;;;3.47;;
4547;SDS011;2286;51.570;7.090;2023-09-19T03:44:38;5.63;;;2.77;;
4547;SDS011;2286;51.570;7.090;2023-09-19T03:47:05;7.90;;;3.00;;
4547;SDS011;2286;51.570;7.090;2023-09-19T03:49:32;13.23;;;3.30;;
4547;SDS011;2286;51.570;7.090;2023-09-19T03:52:00;7.40;;;2.83;;
4547;SDS011;2286;51.570;7.090;2023-09-19T03:54:27;11.87;;;3.90;;
4547;SDS011;2286;51.570;7.090;2023-09-19T03:56:54;11.77;;;3.50;;
4547;SDS011;2286;51.570;7.090;2023-09-19T03:59:21;12.40;;;3.50;;
4547;SDS011;2286;51.570;7.090;2023-09-19T04:01:50;11.07;;;3.30;;
4547;SDS011;2286;51.570;7.090;2023-09-19T04:04:21;8.70;;;3.10;;
4547;SDS011;2286;51.570;7.090;2023-09-19T04:06:50;9.03;;;3.43;;
4547;SDS011;2286;51.570;7.090;2023-09-19T04:09:17;10.57;;;3.17;;
4547;SDS011;2286;51.570;7.090;2023-09-19T04:11:44;10.20;;;3.10;;
4547;SDS011;2286;51.570;7.090;2023-09-19T04:14:11;11.57;;;3.57;;
4547;SDS011;2286;51.570;7.090;2023-09-19T04:16:38;11.83;;;2.90;;
4547;SDS011;2286;51.570;7.090;2023-09-19T04:19:07;13.03;;;4.07;;
4547;SDS011;2286;51.570;7.090;2023-09-19T04:21:34;8.27;;;2.97;;
4547;SDS011;2286;51.570;7.090;2023-09-19T04:24:01;10.63;;;2.90;;
4547;SDS011;2286;51.570;7.090;2023-09-19T04:26:28;7.97;;;3.00;;
4547;SDS011;2286;51.570;7.090;2023-09-19T04:28:55;12.70;;;3.53;;
4547;SDS011;2286;51.570;7.090;2023-09-19T04:31:22;10.80;;;3.10;;
4547;SDS011;2286;51.570;7.090;2023-09-19T04:33:49;9.37;;;3.10;;
4547;SDS011;2286;51.570;7.090;2023-09-19T04:36:18;13.10;;;3.43;;
4547;SDS011;2286;51.570;7.090;2023-09-19T04:38:47;8.03;;;3.00;;
4547;SDS011;2286;51.570;7.090;2023-09-19T04:41:15;10.83;;;3.27;;
4547;SDS011;2286;51.570;7.090;2023-09-19T04:43:42;7.53;;;3.40;;
4547;SDS011;2286;51.570;7.090;2023-09-19T04:46:09;10.10;;;4.10;;
4547;SDS011;2286;51.570;7.090;2023-09-19T04:48:39;8.30;;;3.10;;
4547;SDS011;2286;51.570;7.090;2023-09-19T04:51:06;11.80;;;4.70;;
4547;SDS011;2286;51.570;7.090;2023-09-19T04:53:35;12.20;;;3.73;;
4547;SDS011;2286;51.570;7.090;2023-09-19T04:56:02;7.27;;;4.10;;
4547;SDS011;2286;51.570;7.090;2023-09-19T04:58:31;11.97;;;3.83;;
4547;SDS011;2286;51.570;7.090;2023-09-19T05:00:59;7.87;;;3.40;;
4547;SDS011;2286;51.570;7.090;2023-09-19T05:03:29;8.93;;;3.27;;
4547;SDS011;2286;51.570;7.090;2023-09-19T05:05:56;13.13;;;3.57;;
4547;SDS011;2286;51.570;7.090;2023-09-19T05:08:23;8.73;;;3.23;;
4547;SDS011;2286;51.570;7.090;2023-09-19T05:10:52;9.53;;;3.50;;
4547;SDS011;2286;51.570;7.090;2023-09-19T05:13:21;8.70;;;3.87;;
4547;SDS011;2286;51.570;7.090;2023-09-19T05:15:48;12.60;;;4.50;;
4547;SDS011;2286;51.570;7.090;2023-09-19T05:18:15;13.07;;;3.10;;
4547;SDS011;2286;51.570;7.090;2023-09-19T05:20:42;11.77;;;3.70;;
4547;SDS011;2286;51.570;7.090;2023-09-19T05:23:09;13.57;;;4.13;;
4547;SDS011;2286;51.570;7.090;2023-09-19T05:25:37;11.07;;;4.20;;
4547;SDS011;2286;51.570;7.090;2023-09-19T05:28:07;10.37;;;3.17;;
4547;SDS011;2286;51.570;7.090;2023-09-19T05:30:36;14.30;;;5.47;;
4547;SDS011;2286;51.570;7.090;2023-09-19T05:33:05;12.17;;;4.07;;
4547;SDS011;2286;51.570;7.090;2023-09-19T05:35:32;7.53;;;3.77;;
4547;SDS011;2286;51.570;7.090;2023-09-19T05:38:02;7.73;;;3.37;;
4547;SDS011;2286;51.570;7.090;2023-09-19T05:40:30;14.00;;;3.60;;
4547;SDS011;2286;51.570;7.090;2023-09-19T05:42:57;10.23;;;3.57;;
4547;SDS011;2286;51.570;7.090;2023-09-19T05:45:26;14.70;;;4.00;;
4547;SDS011;2286;51.570;7.090;2023-09-19T05:47:53;8.20;;;3.37;;
4547;SDS011;2286;51.570;7.090;2023-09-19T05:50:26;13.10;;;3.50;;
4547;SDS011;2286;51.570;7.090;2023-09-19T05:52:53;6.67;;;3.07;;
4547;SDS011;2286;51.570;7.090;2023-09-19T05:55:21;10.77;;;4.17;;
4547;SDS011;2286;51.570;7.090;2023-09-19T05:57:50;7.03;;;3.70;;
4547;SDS011;2286;51.570;7.090;2023-09-19T06:00:17;13.47;;;3.50;;
4547;SDS011;2286;51.570;7.090;2023-09-19T06:02:50;8.83;;;3.47;;
4547;SDS011;2286;51.570;7.090;2023-09-19T06:05:18;8.17;;;3.70;;
4547;SDS011;2286;51.570;7.090;2023-09-19T06:07:46;9.90;;;3.40;;
4547;SDS011;2286;51.570;7.090;2023-09-19T06:10:13;10.30;;;3.37;;
4547;SDS011;2286;51.570;7.090;2023-09-19T06:12:41;9.03;;;3.63;;
4547;SDS011;2286;51.570;7.090;2023-09-19T06:15:09;15.80;;;3.80;;
4547;SDS011;2286;51.570;7.090;2023-09-19T06:17:40;8.00;;;3.10;;
4547;SDS011;2286;51.570;7.090;2023-09-19T06:20:09;8.93;;;2.80;;
4547;SDS011;2286;51.570;7.090;2023-09-19T06:22:39;12.77;;;4.13;;
4547;SDS011;2286;51.570;7.090;2023-09-19T06:25:08;12.17;;;3.30;;
4547;SDS011;2286;51.570;7.090;2023-09-19T06:27:37;13.00;;;3.67;;
4547;SDS011;2286;51.570;7.090;2023-09-19T06:30:07;7.93;;;3.70;;
4547;SDS011;2286;51.570;7.090;2023-09-19T06:32:36;10.97;;;3.37;;
4547;SDS011;2286;51.570;7.090;2023-09-19T06:35:03;9.90;;;2.60;;
4547;SDS011;2286;51.570;7.090;2023-09-19T06:37:34;11.23;;;3.50;;
4547;SDS011;2286;51.570;7.090;2023-09-19T06:40:04;8.10;;;3.30;;
4547;SDS011;2286;51.570;7.090;2023-09-19T06:42:34;6.60;;;2.80;;
4547;SDS011;2286;51.570;7.090;2023-09-19T06:45:02;10.33;;;3.20;;
4547;SDS011;2286;51.570;7.090;2023-09-19T06:47:30;8.13;;;3.00;;
4547;SDS011;2286;51.570;7.090;2023-09-19T06:49:57;15.90;;;4.87;;
4547;SDS011;2286;51.570;7.090;2023-09-19T06:52:24;7.57;;;3.93;;
4547;SDS011;2286;51.570;7.090;2023-09-19T06:54:54;9.00;;;3.40;;
4547;SDS011;2286;51.570;7.090;2023-09-19T06:57:22;7.77;;;3.37;;
4547;SDS011;2286;51.570;7.090;2023-09-19T06:59:49;10.83;;;3.07;;
4547;SDS011;2286;51.570;7.090;2023-09-19T07:02:16;8.77;;;3.20;;
4547;SDS011;2286;51.570;7.090;2023-09-19T07:04:44;8.90;;;3.13;;
4547;SDS011;2286;51.570;7.090;2023-09-19T07:07:12;9.90;;;3.23;;
4547;SDS011;2286;51.570;7.090;2023-09-19T07:09:39;11.00;;;3.70;;
4547;SDS011;2286;51.570;7.090;2023-09-19T07:12:08;10.93;;;3.87;;
4547;SDS011;2286;51.570;7.090;2023-09-19T07:14:37;10.17;;;4.20;;
4547;SDS011;2286;51.570;7.090;2023-09-19T07:17:04;9.37;;;3.63;;
4547;SDS011;2286;51.570;7.090;2023-09-19T07:19:31;7.23;;;3.30;;
4547;SDS011;2286;51.570;7.090;2023-09-19T07:21:58;10.80;;;3.73;;
4547;SDS011;2286;51.570;7.090;2023-09-19T07:24:27;9.90;;;3.80;;
4547;SDS011;2286;51.570;7.090;2023-09-19T07:26:55;10.57;;;3.20;;
4547;SDS011;2286;51.570;7.090;2023-09-19T07:29:23;9.17;;;3.57;;
4547;SDS011;2286;51.570;7.090;2023-09-19T07:31:51;12.60;;;3.57;;
4547;SDS011;2286;51.570;7.090;2023-09-19T07:34:19;9.07;;;3.40;;
4547;SDS011;2286;51.570;7.090;2023-09-19T07:36:47;7.83;;;3.40;;
4547;SDS011;2286;51.570;7.090;2023-09-19T07:39:14;7.97;;;3.33;;
4547;SDS011;2286;51.570;7.090;2023-09-19T07:41:41;11.43;;;3.33;;
4547;SDS011;2286;51.570;7.090;2023-09-19T07:44:08;11.30;;;3.30;;
4547;SDS011;2286;51.570;7.090;2023-09-19T07:46:37;11.10;;;3.70;;
4547;SDS011;2286;51.570;7.090;2023-09-19T07:49:04;10.30;;;2.80;;
4547;SDS011;2286;51.570;7.090;2023-09-19T07:51:31;8.43;;;3.17;;
4547;SDS011;2286;51.570;7.090;2023-09-19T07:53:59;8.57;;;3.00;;
4547;SDS011;2286;51.570;7.090;2023-09-19T07:56:26;11.93;;;3.00;;
4547;SDS011;2286;51.570;7.090;2023-09-19T07:58:53;7.47;;;2.83;;
4547;SDS011;2286;51.570;7.090;2023-09-19T08:01:20;12.47;;;3.50;;
4547;SDS011;2286;51.570;7.090;2023-09-19T08:03:50;9.30;;;3.80;;
4547;SDS011;2286;51.570;7.090;2023-09-19T08:06:17;10.70;;;3.30;;
4547;SDS011;2286;51.570;7.090;2023-09-19T08:08:45;8.47;;;2.90;;
4547;SDS011;2286;51.570;7.090;2023-09-19T08:11:14;6.33;;;3.03;;
4547;SDS011;2286;51.570;7.090;2023-09-19T08:13:46;14.47;;;3.90;;
4547;SDS011;2286;51.570;7.090;2023-09-19T08:16:14;11.30;;;3.20;;
4547;SDS011;2286;51.570;7.090;2023-09-19T08:18:41;10.53;;;3.93;;
4547;SDS011;2286;51.570;7.090;2023-09-19T08:21:11;11.40;;;3.33;;
4547;SDS011;2286;51.570;7.090;2023-09-19T08:23:39;11.97;;;3.83;;
4547;SDS011;2286;51.570;7.090;2023-09-19T08:26:07;11.90;;;3.33;;
4547;SDS011;2286;51.570;7.090;2023-09-19T08:28:34;11.47;;;3.10;;
4547;SDS011;2286;51.570;7.090;2023-09-19T08:31:02;10.57;;;3.43;;
4547;SDS011;2286;51.570;7.090;2023-09-19T08:33:31;11.17;;;3.47;;
4547;SDS011;2286;51.570;7.090;2023-09-19T08:35:58;10.67;;;3.37;;
4547;SDS011;2286;51.570;7.090;2023-09-19T08:38:27;11.33;;;3.60;;
4547;SDS011;2286;51.570;7.090;2023-09-19T08:40:56;15.73;;;3.40;;
4547;SDS011;2286;51.570;7.090;2023-09-19T08:43:24;7.93;;;2.83;;
4547;SDS011;2286;51.570;7.090;2023-09-19T08:45:53;10.73;;;3.10;;
4547;SDS011;2286;51.570;7.090;2023-09-19T08:48:29;10.67;;;3.33;;
4547;SDS011;2286;51.570;7.090;2023-09-19T08:51:00;11.73;;;3.07;;
4547;SDS011;2286;51.570;7.090;2023-09-19T08:53:34;12.20;;;3.10;;
4547;SDS011;2286;51.570;7.090;2023-09-19T08:56:08;11.03;;;2.67;;
4547;SDS011;2286;51.570;7.090;2023-09-19T08:58:40;11.53;;;2.90;;
4547;SDS011;2286;51.570;7.090;2023-09-19T09:01:13;15.40;;;2.93;;
4547;SDS011;2286;51.570;7.090;2023-09-19T09:03:42;8.47;;;2.90;;
4547;SDS011;2286;51.570;7.090;2023-09-19T09:06:12;8.60;;;2.87;;
4547;SDS011;2286;51.570;7.090;2023-09-19T09:08:43;7.97;;;2.80;;
4547;SDS011;2286;51.570;7.090;2023-09-19T09:11:10;11.17;;;3.33;;
4547;SDS011;2286;51.570;7.090;2023-09-19T09:13:38;8.80;;;3.20;;
4547;SDS011;2286;51.570;7.090;2023-09-19T09:16:06;9.80;;;2.87;;
4547;SDS011;2286;51.570;7.090;2023-09-19T09:18:33;5.87;;;2.63;;
4547;SDS011;2286;51.570;7.090;2023-09-19T09:21:00;7.10;;;3.00;;
4547;SDS011;2286;51.570;7.090;2023-09-19T09:23:29;4.87;;;2.57;;
4547;SDS011;2286;51.570;7.090;2023-09-19T09:25:58;10.17;;;2.50;;
4547;SDS011;2286;51.570;7.090;2023-09-19T09:28:28;12.23;;;3.13;;
4547;SDS011;2286;51.570;7.090;2023-09-19T09:30:56;6.77;;;2.73;;
4547;SDS011;2286;51.570;7.090;2023-09-19T09:33:24;7.63;;;2.83;;
4547;SDS011;2286;51.570;7.090;2023-09-19T09:35:52;7.73;;;3.00;;
4547;SDS011;2286;51.570;7.090;2023-09-19T09:38:22;8.00;;;3.20;;
4547;SDS011;2286;51.570;7.090;2023-09-19T09:40:52;14.30;;;3.00;;
4547;SDS011;2286;51.570;7.090;2023-09-19T09:43:26;7.80;;;3.07;;
4547;SDS011;2286;51.570;7.090;2023-09-19T09:46:08;5.93;;;2.70;;
4547;SDS011;2286;51.570;7.090;2023-09-19T09:48:55;9.07;;;3.03;;
4547;SDS011;2286;51.570;7.090;2023-09-19T09:51:37;11.50;;;2.90;;
4547;SDS011;2286;51.570;7.090;2023-09-19T09:54:11;7.40;;;2.90;;
4547;SDS011;2286;51.570;7.090;2023-09-19T09:56:51;10.23;;;3.00;;
4547;SDS011;2286;51.570;7.090;2023-09-19T09:59:21;13.40;;;2.87;;
4547;SDS011;2286;51.570;7.090;2023-09-19T10:01:49;8.73;;;2.43;;
4547;SDS011;2286;51.570;7.090;2023-09-19T10:04:26;12.97;;;3.17;;
4547;SDS011;2286;51.570;7.090;2023-09-19T10:06:56;8.60;;;2.93;;
4547;SDS011;2286;51.570;7.090;2023-09-19T10:09:30;8.10;;;2.87;;
4547;SDS011;2286;51.570;7.090;2023-09-19T10:12:03;10.17;;;3.43;;
4547;SDS011;2286;51.570;7.090;2023-09-19T10:14:35;6.70;;;2.57;;
4547;SDS011;2286;51.570;7.090;2023-09-19T10:17:04;5.67;;;2.80;;
4547;SDS011;2286;51.570;7.090;2023-09-19T10:19:36;9.93;;;3.07;;
4547;SDS011;2286;51.570;7.090;2023-09-19T10:22:04;6.80;;;2.20;;
4547;SDS011;2286;51.570;7.090;2023-09-19T10:24:34;7.03;;;3.27;;
4547;SDS011;2286;51.570;7.090;2023-09-19T10:27:04;8.13;;;2.47;;
4547;SDS011;2286;51.570;7.090;2023-09-19T10:29:35;5.57;;;2.60;;
4547;SDS011;2286;51.570;7.090;2023-09-19T10:32:05;7.33;;;1.87;;
4547;SDS011;2286;51.570;7.090;2023-09-19T10:34:34;6.50;;;1.93;;
4547;SDS011;2286;51.570;7.090;2023-09-19T10:37:02;7.57;;;2.60;;
4547;SDS011;2286;51.570;7.090;2023-09-19T10:39:31;5.57;;;2.10;;
4547;SDS011;2286;51.570;7.090;2023-09-19T10:42:02;4.60;;;2.23;;
4547;SDS011;2286;51.570;7.090;2023-09-19T10:44:31;6.00;;;1.93;;
4547;SDS011;2286;51.570;7.090;2023-09-19T10:47:00;11.00;;;3.00;;
4547;SDS011;2286;51.570;7.090;2023-09-19T10:49:32;7.37;;;2.60;;
4547;SDS011;2286;51.570;7.090;2023-09-19T10:51:59;8.10;;;2.70;;
4547;SDS011;2286;51.570;7.090;2023-09-19T10:54:30;8.20;;;3.13;;
4547;SDS011;2286;51.570;7.090;2023-09-19T10:57:02;5.73;;;2.23;;
4547;SDS011;2286;51.570;7.090;2023-09-19T10:59:30;6.80;;;2.37;;
4547;SDS011;2286;51.570;7.090;2023-09-19T11:02:15;5.63;;;2.23;;
4547;SDS011;2286;51.570;7.090;2023-09-19T11:04:43;8.13;;;3.10;;
4547;SDS011;2286;51.570;7.090;2023-09-19T11:07:13;7.43;;;2.50;;
4547;SDS011;2286;51.570;7.090;2023-09-19T11:09:45;5.57;;;2.30;;
4547;SDS011;2286;51.570;7.090;2023-09-19T11:12:12;7.60;;;2.87;;
4547;SDS011;2286;51.570;7.090;2023-09-19T11:15:06;5.20;;;2.20;;
4547;SDS011;2286;51.570;7.090;2023-09-19T11:17:37;5.13;;;2.13;;
4547;SDS011;2286;51.570;7.090;2023-09-19T11:20:17;6.13;;;2.40;;
4547;SDS011;2286;51.570;7.090;2023-09-19T11:25:52;6.13;;;2.20;;
4547;SDS011;2286;51.570;7.090;2023-09-19T11:28:29;5.13;;;2.30;;
4547;SDS011;2286;51.570;7.090;2023-09-19T11:40:11;6.30;;;2.00;;
4547;SDS011;2286;51.570;7.090;2023-09-19T11:42:42;9.33;;;2.10;;
4547;SDS011;2286;51.570;7.090;2023-09-19T11:48:22;6.40;;;2.73;;
4547;SDS011;2286;51.570;7.090;2023-09-19T11:50:51;4.57;;;2.30;;
4547;SDS011;2286;51.570;7.090;2023-09-19T11:53:20;4.83;;;2.47;;
4547;SDS011;2286;51.570;7.090;2023-09-19T11:55:50;6.33;;;2.40;;
4547;SDS011;2286;51.570;7.090;2023-09-19T11:58:18;12.30;;;2.60;;
4547;SDS011;2286;51.570;7.090;2023-09-19T12:00:45;9.90;;;2.47;;
4547;SDS011;2286;51.570;7.090;2023-09-19T12:03:19;3.10;;;1.97;;
4547;SDS011;2286;51.570;7.090;2023-09-19T12:05:50;7.10;;;2.23;;
4547;SDS011;2286;51.570;7.090;2023-09-19T12:08:17;7.43;;;2.30;;
4547;SDS011;2286;51.570;7.090;2023-09-19T12:10:47;5.30;;;2.47;;
4547;SDS011;2286;51.570;7.090;2023-09-19T12:13:19;5.40;;;2.40;;
4547;SDS011;2286;51.570;7.090;2023-09-19T12:15:47;5.10;;;1.93;;
4547;SDS011;2286;51.570;7.090;2023-09-19T12:21:01;9.30;;;2.47;;
4547;SDS011;2286;51.570;7.090;2023-09-19T12:23:32;7.30;;;2.10;;
4547;SDS011;2286;51.570;7.090;2023-09-19T12:26:02;9.40;;;2.10;;
4547;SDS011;2286;51.570;7.090;2023-09-19T12:28:40;6.10;;;2.57;;
4547;SDS011;2286;51.570;7.090;2023-09-19T12:31:08;6.07;;;2.20;;
4547;SDS011;2286;51.570;7.090;2023-09-19T12:33:37;3.53;;;1.83;;
4547;SDS011;2286;51.570;7.090;2023-09-19T12:36:19;4.90;;;2.20;;
4547;SDS011;2286;51.570;7.090;2023-09-19T12:38:50;9.07;;;2.80;;
4547;SDS011;2286;51.570;7.090;2023-09-19T12:41:20;5.30;;;2.17;;
4547;SDS011;2286;51.570;7.090;2023-09-19T12:43:49;3.83;;;2.20;;
4547;SDS011;2286;51.570;7.090;2023-09-19T12:46:19;3.23;;;2.20;;
4547;SDS011;2286;51.570;7.090;2023-09-19T12:48:51;3.30;;;2.10;;
4547;SDS011;2286;51.570;7.090;2023-09-19T12:51:42;5.50;;;2.27;;
4547;SDS011;2286;51.570;7.090;2023-09-19T12:54:09;5.47;;;2.17;;
4547;SDS011;2286;51.570;7.090;2023-09-19T12:56:40;4.37;;;2.13;;
4547;SDS011;2286;51.570;7.090;2023-09-19T12:59:11;3.83;;;1.97;;
4547;SDS011;2286;51.570;7.090;2023-09-19T13:01:39;7.03;;;2.07;;
4547;SDS011;2286;51.570;7.090;2023-09-19T13:04:14;5.57;;;2.23;;
4547;SDS011;2286;51.570;7.090;2023-09-19T13:06:44;3.70;;;2.30;;
4547;SDS011;2286;51.570;7.090;2023-09-19T13:09:13;5.77;;;2.00;;
4547;SDS011;2286;51.570;7.090;2023-09-19T13:11:41;7.87;;;2.10;;
4547;SDS011;2286;51.570;7.090;2023-09-19T13:14:16;4.87;;;2.10;;
4547;SDS011;2286;51.570;7.090;2023-09-19T13:16:57;5.60;;;1.70;;
4547;SDS011;2286;51.570;7.090;2023-09-19T13:19:36;4.83;;;1.67;;
4547;SDS011;2286;51.570;7.090;2023-09-19T13:22:04;2.60;;;1.73;;
4547;SDS011;2286;51.570;7.090;2023-09-19T13:24:33;4.70;;;1.57;;
4547;SDS011;2286;51.570;7.090;2023-09-19T13:27:05;3.77;;;2.23;;
4547;SDS011;2286;51.570;7.090;2023-09-19T13:29:34;3.30;;;1.30;;
4547;SDS011;2286;51.570;7.090;2023-09-19T13:32:01;11.83;;;1.70;;
4547;SDS011;2286;51.570;7.090;2023-09-19T13:34:29;3.50;;;1.87;;
4547;SDS011;2286;51.570;7.090;2023-09-19T13:36:56;5.20;;;2.10;;
4547;SDS011;2286;51.570;7.090;2023-09-19T13:39:24;5.17;;;1.60;;
4547;SDS011;2286;51.570;7.090;2023-09-19T13:41:51;4.63;;;1.80;;
4547;SDS011;2286;51.570;7.090;2023-09-19T13:44:18;4.70;;;1.60;;
4547;SDS011;2286;51.570;7.090;2023-09-19T13:46:47;4.77;;;2.07;;
4547;SDS011;2286;51.570;7.090;2023-09-19T13:49:14;6.17;;;1.80;;
4547;SDS011;2286;51.570;7.090;2023-09-19T13:51:43;9.00;;;2.43;;
4547;SDS011;2286;51.570;7.090;2023-09-19T13:54:10;5.17;;;1.93;;
4547;SDS011;2286;51.570;7.090;2023-09-19T13:56:37;5.20;;;2.30;;
4547;SDS011;2286;51.570;7.090;2023-09-19T13:59:05;3.17;;;1.70;;
4547;SDS011;2286;51.570;7.090;2023-09-19T14:01:32;5.00;;;1.30;;
4547;SDS011;2286;51.570;7.090;2023-09-19T14:04:00;4.20;;;1.77;;
4547;SDS011;2286;51.570;7.090;2023-09-19T14:06:27;3.40;;;1.47;;
4547;SDS011;2286;51.570;7.090;2023-09-19T14:08:54;3.50;;;1.30;;
4547;SDS011;2286;51.570;7.090;2023-09-19T14:11:21;2.97;;;1.40;;
4547;SDS011;2286;51.570;7.090;2023-09-19T14:13:48;3.63;;;2.10;;
4547;SDS011;2286;51.570;7.090;2023-09-19T14:16:17;4.20;;;1.73;;
4547;SDS011;2286;51.570;7.090;2023-09-19T14:18:44;4.70;;;1.60;;
4547;SDS011;2286;51.570;7.090;2023-09-19T14:21:13;2.53;;;1.30;;
4547;SDS011;2286;51.570;7.090;2023-09-19T14:23:40;4.73;;;1.60;;
4547;SDS011;2286;51.570;7.090;2023-09-19T14:26:09;5.33;;;1.77;;
4547;SDS011;2286;51.570;7.090;2023-09-19T14:28:36;3.53;;;1.93;;
4547;SDS011;2286;51.570;7.090;2023-09-19T14:31:04;3.13;;;1.23;;
4547;SDS011;2286;51.570;7.090;2023-09-19T14:33:32;2.87;;;1.30;;
4547;SDS011;2286;51.570;7.090;2023-09-19T14:36:02;4.80;;;1.20;;
4547;SDS011;2286;51.570;7.090;2023-09-19T14:38:32;3.97;;;1.47;;
4547;SDS011;2286;51.570;7.090;2023-09-19T14:41:00;4.07;;;1.40;;
4547;SDS011;2286;51.570;7.090;2023-09-19T14:43:27;4.83;;;1.77;;
4547;SDS011;2286;51.570;7.090;2023-09-19T14:45:55;3.93;;;1.67;;
4547;SDS011;2286;51.570;7.090;2023-09-19T14:48:23;3.67;;;1.30;;
4547;SDS011;2286;51.570;7.090;2023-09-19T14:50:51;9.00;;;1.50;;
4547;SDS011;2286;51.570;7.090;2023-09-19T14:53:18;2.93;;;1.07;;
4547;SDS011;2286;51.570;7.090;2023-09-19T14:55:47;3.47;;;1.10;;
4547;SDS011;2286;51.570;7.090;2023-09-19T14:58:17;3.73;;;1.30;;
4547;SDS011;2286;51.570;7.090;2023-09-19T15:00:44;4.87;;;1.50;;
4547;SDS011;2286;51.570;7.090;2023-09-19T15:03:11;3.93;;;1.37;;
4547;SDS011;2286;51.570;7.090;2023-09-19T15:05:39;4.60;;;1.93;;
4547;SDS011;2286;51.570;7.090;2023-09-19T15:08:06;7.70;;;1.40;;
4547;SDS011;2286;51.570;7.090;2023-09-19T15:10:34;4.90;;;1.20;;
4547;SDS011;2286;51.570;7.090;2023-09-19T15:13:02;2.73;;;1.47;;
4547;SDS011;2286;51.570;7.090;2023-09-19T15:15:31;2.33;;;1.10;;
4547;SDS011;2286;51.570;7.090;2023-09-19T15:17:58;4.53;;;1.30;;
4547;SDS011;2286;51.570;7.090;2023-09-19T15:20:25;2.70;;;1.20;;
4547;SDS011;2286;51.570;7.090;2023-09-19T15:22:52;1.57;;;1.00;;
4547;SDS011;2286;51.570;7.090;2023-09-19T15:25:19;1.90;;;1.20;;
4547;SDS011;2286;51.570;7.090;2023-09-19T15:27:46;2.90;;;1.00;;
4547;SDS011;2286;51.570;7.090;2023-09-19T15:30:16;4.97;;;1.13;;
4547;SDS011;2286;51.570;7.090;2023-09-19T15:32:44;2.53;;;1.20;;
4547;SDS011;2286;51.570;7.090;2023-09-19T15:35:11;4.53;;;1.33;;
4547;SDS011;2286;51.570;7.090;2023-09-19T15:37:39;3.43;;;1.30;;
4547;SDS011;2286;51.570;7.090;2023-09-19T15:40:07;4.87;;;1.50;;
4547;SDS011;2286;51.570;7.090;2023-09-19T15:42:38;4.80;;;1.20;;
4547;SDS011;2286;51.570;7.090;2023-09-19T15:45:06;3.53;;;1.00;;